Time;durP1;ratioP1;P1;durP2;ratioP2;P2;SDS_P1;SDS_P2;PMS_P1;PMS_P2;Temp;Humidity;BMP_temperature;BMP_pressure;BME280_temperature;BME280_humidity;BME280_pressure;Samples;Min_cycle;Max_cycle;Signal;HPM_P1;HPM_P2
2022/12/04 00:01:23;;;;;;;;;35.00;30.00;;;;;5.57;61.06;100805.00;6308696;22;46128;-49
2022/12/04 00:03:54;;;;;;;;;28.75;24.75;;;;;5.56;61.10;100802.38;6307584;22;45253;-52
2022/12/04 00:06:22;;;;;;;;;36.50;31.00;;;;;5.54;61.09;100798.03;6309843;22;45473;-49
2022/12/04 00:08:47;;;;;;;;;37.25;32.25;;;;;5.54;61.17;100800.63;6309782;22;46119;-49
2022/12/04 00:11:16;;;;;;;;;30.25;26.50;;;;;5.53;61.08;100798.03;6307276;22;45312;-50
2022/12/04 00:13:42;;;;;;;;;30.00;27.25;;;;;5.54;60.90;100807.59;6305127;22;45311;-52
2022/12/04 00:16:10;;;;;;;;;30.75;28.25;;;;;5.51;60.98;100808.44;6307698;22;45513;-53
2022/12/04 00:18:36;;;;;;;;;30.00;27.50;;;;;5.52;61.16;100802.38;6309166;22;46263;-53
2022/12/04 00:21:04;;;;;;;;;28.50;23.00;;;;;5.52;61.09;100811.91;6309080;22;45314;-49
2022/12/04 00:23:29;;;;;;;;;31.00;24.25;;;;;5.52;61.19;100811.91;6308702;22;45305;-55
2022/12/04 00:26:06;;;;;;;;;31.25;24.50;;;;;5.51;61.23;100805.84;6309528;22;45373;-52
2022/12/04 00:28:32;;;;;;;;;32.50;27.50;;;;;5.50;61.21;100806.69;6309531;22;46013;-47
2022/12/04 00:30:57;;;;;;;;;36.25;32.25;;;;;5.50;61.24;100806.69;6309530;22;45673;-50
2022/12/04 00:33:23;;;;;;;;;38.25;33.50;;;;;5.50;61.35;100804.09;6307463;22;45303;-50
2022/12/04 00:35:59;;;;;;;;;31.00;25.75;;;;;5.50;61.19;100798.03;6334421;22;45426;-50
2022/12/04 00:38:25;;;;;;;;;36.75;31.00;;;;;5.48;61.42;100797.97;6307571;22;45957;-52
2022/12/04 00:40:51;;;;;;;;;32.75;28.50;;;;;5.47;61.12;100796.25;6309634;22;45295;-51
2022/12/04 00:43:17;;;;;;;;;33.75;30.25;;;;;5.49;61.53;100784.09;6308120;22;45291;-53
2022/12/04 00:45:42;;;;;;;;;33.25;31.75;;;;;5.44;61.21;100791.00;6309974;22;45490;-49
2022/12/04 00:48:08;;;;;;;;;34.25;27.00;;;;;5.48;61.07;100799.72;6309684;22;46045;-52
2022/12/04 00:50:34;;;;;;;;;30.25;27.25;;;;;5.48;61.34;100802.34;6309705;22;45195;-52
2022/12/04 00:52:59;;;;;;;;;41.75;33.50;;;;;5.48;60.94;100802.34;6309522;22;45172;-53
2022/12/04 00:55:25;;;;;;;;;25.25;25.25;;;;;5.47;61.38;100795.38;6309736;22;46985;-49
2022/12/04 00:57:50;;;;;;;;;34.75;29.75;;;;;5.47;61.25;100801.47;6309772;22;46112;-52
2022/12/04 01:00:17;;;;;;;;;33.00;25.75;;;;;5.47;61.11;100792.75;6309614;22;45151;-49
2022/12/04 01:02:43;;;;;;;;;35.75;31.25;;;;;5.46;61.21;100802.31;6307727;22;45172;-49
2022/12/04 01:05:08;;;;;;;;;30.25;26.75;;;;;5.45;61.33;100792.75;6309828;22;45315;-50
2022/12/04 01:07:33;;;;;;;;;24.75;23.75;;;;;5.47;61.32;100797.97;6307722;22;46517;-48
2022/12/04 01:09:59;;;;;;;;;43.50;32.75;;;;;5.46;61.03;100789.28;6307989;22;45267;-51
2022/12/04 01:12:24;;;;;;;;;40.00;33.00;;;;;5.46;61.28;100788.41;6309895;22;45327;-50
2022/12/04 01:14:50;;;;;;;;;37.75;30.75;;;;;5.47;61.18;100790.16;6333712;22;45235;-49
2022/12/04 01:17:15;;;;;;;;;38.00;34.50;;;;;5.47;61.42;100782.34;6307649;22;45481;-51
2022/12/04 01:19:41;;;;;;;;;38.25;33.00;;;;;5.48;61.07;100797.97;6309343;22;45264;-51
2022/12/04 01:22:06;;;;;;;;;31.25;27.50;;;;;5.49;61.18;100788.44;6310570;22;45257;-51
2022/12/04 01:24:32;;;;;;;;;39.00;29.00;;;;;5.47;61.58;100785.84;6310267;22;45444;-48
2022/12/04 01:26:57;;;;;;;;;29.75;22.50;;;;;5.47;61.23;100778.00;6310245;22;45396;-50
2022/12/04 01:29:22;;;;;;;;;36.25;29.00;;;;;5.48;61.41;100779.72;6310975;22;45255;-47
2022/12/04 01:31:48;;;;;;;;;40.25;30.50;;;;;5.48;61.41;100791.91;6308929;22;45270;-51
2022/12/04 01:34:13;;;;;;;;;43.25;32.50;;;;;5.47;61.13;100785.84;6310346;22;45246;-50
2022/12/04 01:36:39;;;;;;;;;33.25;32.00;;;;;5.48;61.37;100782.34;6308669;22;46834;-47
2022/12/04 01:39:04;;;;;;;;;33.25;30.25;;;;;5.46;61.36;100781.47;6308915;22;45307;-52
2022/12/04 01:41:31;;;;;;;;;32.25;29.75;;;;;5.49;61.23;100788.44;6310421;22;45199;-47
2022/12/04 01:44:10;;;;;;;;;39.75;28.00;;;;;5.47;61.29;100779.72;6310567;22;45105;-49
2022/12/04 01:46:37;;;;;;;;;36.25;28.00;;;;;5.47;61.43;100795.38;6308627;22;48232;-48
2022/12/04 01:49:04;;;;;;;;;41.75;34.25;;;;;5.47;61.55;100791.03;6308189;22;45259;-47
2022/12/04 01:51:36;;;;;;;;;31.25;29.75;;;;;5.47;61.32;100784.94;6283126;22;45398;-47
2022/12/04 01:54:07;;;;;;;;;30.00;26.00;;;;;5.44;61.15;100777.97;6310081;22;45333;-48
2022/12/04 01:56:41;;;;;;;;;38.25;36.50;;;;;5.48;61.18;100781.47;6310169;22;46092;-47
2022/12/04 01:59:10;;;;;;;;;36.25;30.25;;;;;5.47;61.34;100785.84;6308720;22;45195;-47
2022/12/04 02:01:43;;;;;;;;;36.00;30.50;;;;;5.48;61.22;100786.69;6310873;22;45321;-48
2022/12/04 02:04:08;;;;;;;;;29.50;26.75;;;;;5.49;61.37;100778.88;6308236;22;45279;-50
2022/12/04 02:06:33;;;;;;;;;39.25;27.75;;;;;5.49;61.32;100786.69;6310816;22;45244;-49
2022/12/04 02:08:59;;;;;;;;;39.50;35.50;;;;;5.48;61.07;100790.16;6310296;22;45253;-48
2022/12/04 02:11:25;;;;;;;;;41.75;34.25;;;;;5.51;61.30;100781.53;6310568;22;45258;-49
2022/12/04 02:13:56;;;;;;;;;50.25;37.25;;;;;5.51;61.51;100784.13;6308330;22;45393;-51
2022/12/04 02:16:32;;;;;;;;;31.25;29.00;;;;;5.51;61.25;100782.38;6310771;22;45216;-50
2022/12/04 02:19:31;;;;;;;;;41.50;34.75;;;;;5.51;61.21;100791.94;6310465;22;45347;-50
2022/12/04 02:22:01;;;;;;;;;46.25;37.75;;;;;5.52;61.17;100788.44;6310961;22;45173;-50
2022/12/04 02:24:53;;;;;;;;;40.25;32.00;;;;;5.52;61.29;100784.13;6309848;22;45246;-47
2022/12/04 02:27:39;;;;;;;;;34.75;31.25;;;;;5.52;61.39;100783.25;6261040;22;45368;-49
2022/12/04 02:30:11;;;;;;;;;42.50;35.25;;;;;5.51;61.30;100774.56;6308359;22;45171;-50
2022/12/04 02:32:57;;;;;;;;;37.75;34.25;;;;;5.50;61.42;100778.03;6309526;22;45195;-46
2022/12/04 02:35:30;;;;;;;;;45.25;36.00;;;;;5.52;61.49;100778.03;6308567;22;45161;-50
2022/12/04 02:38:04;;;;;;;;;38.25;32.75;;;;;5.47;61.36;100772.81;6310757;22;46213;-49
2022/12/04 02:40:38;;;;;;;;;40.75;35.00;;;;;5.50;61.55;100780.63;6309844;22;45342;-47
2022/12/04 02:43:28;;;;;;;;;41.25;31.50;;;;;5.52;61.39;100793.66;6308557;22;45321;-51
2022/12/04 02:46:00;;;;;;;;;35.75;32.25;;;;;5.50;61.18;100801.47;6310604;22;45218;-47
2022/12/04 02:48:29;;;;;;;;;36.00;34.50;;;;;5.50;61.50;100790.19;6310029;22;45341;-53
2022/12/04 02:50:59;;;;;;;;;29.75;25.75;;;;;5.51;61.29;100790.19;6309116;22;45236;-47
2022/12/04 02:53:36;;;;;;;;;40.00;34.75;;;;;5.49;61.36;100786.69;6310560;22;45243;-51
2022/12/04 02:56:07;;;;;;;;;40.25;36.50;;;;;5.49;61.62;100791.91;6310297;22;45258;-49
2022/12/04 02:58:41;;;;;;;;;28.75;25.50;;;;;5.48;61.22;100787.56;6310607;22;45381;-49
2022/12/04 03:01:19;;;;;;;;;37.00;32.50;;;;;5.36;61.26;100769.25;6310408;22;45244;-49
2022/12/04 03:03:53;;;;;;;;;39.50;35.25;;;;;5.47;61.33;100777.13;6284070;22;45266;-49
2022/12/04 03:06:23;;;;;;;;;41.75;34.75;;;;;5.48;61.46;100779.72;6309630;22;45321;-49
2022/12/04 03:09:00;;;;;;;;;38.00;31.75;;;;;5.48;61.24;100777.13;6310138;22;46203;-50
2022/12/04 03:11:29;;;;;;;;;34.25;29.25;;;;;5.47;61.44;100778.00;6310131;22;45231;-47
2022/12/04 03:14:10;;;;;;;;;35.25;28.25;;;;;5.47;61.68;100769.31;6308108;22;45268;-47
2022/12/04 03:16:41;;;;;;;;;35.75;31.75;;;;;5.47;61.56;100769.31;6308955;22;45350;-48
2022/12/04 03:19:14;;;;;;;;;40.50;32.50;;;;;5.47;61.61;100767.59;6310075;22;45962;-47
2022/12/04 03:21:47;;;;;;;;;36.00;28.00;;;;;5.44;61.53;100762.34;6310228;22;45308;-49
2022/12/04 03:24:25;;;;;;;;;38.50;31.00;;;;;5.47;61.51;100769.31;6307532;22;45349;-49
2022/12/04 03:27:00;;;;;;;;;32.50;27.00;;;;;5.47;61.51;100764.97;6308236;22;45402;-49
2022/12/04 03:29:40;;;;;;;;;31.75;26.75;;;;;5.46;61.43;100758.03;6308304;22;46074;-52
2022/12/04 03:32:20;;;;;;;;;36.50;29.25;;;;;5.46;61.44;100765.84;6308096;22;45481;-47
2022/12/04 03:34:56;;;;;;;;;31.50;28.50;;;;;5.46;61.32;100763.22;6309888;22;45242;-49
2022/12/04 03:37:35;;;;;;;;;38.00;32.50;;;;;5.45;61.66;100761.47;6309860;22;45405;-50
2022/12/04 03:40:03;;;;;;;;;31.25;24.50;;;;;5.45;61.41;100763.22;6310234;22;45202;-52
2022/12/04 03:42:42;;;;;;;;;33.50;29.25;;;;;5.40;61.34;100752.75;6310156;22;45296;-49
2022/12/04 03:45:13;;;;;;;;;24.75;21.75;;;;;5.44;61.61;100757.13;6308365;22;45177;-49
2022/12/04 03:47:53;;;;;;;;;26.25;23.50;;;;;5.42;61.47;100745.84;6310045;22;45239;-52
2022/12/04 03:50:22;;;;;;;;;35.75;25.75;;;;;5.41;61.21;100733.66;6310297;22;45293;-47
2022/12/04 03:52:56;;;;;;;;;33.50;25.75;;;;;5.42;61.42;100726.69;6309881;22;45335;-50
2022/12/04 03:55:28;;;;;;;;;29.75;27.00;;;;;5.43;61.41;100718.88;6310092;22;45353;-49
2022/12/04 03:58:01;;;;;;;;;38.75;29.75;;;;;5.43;61.27;100705.84;6309976;22;45454;-49
2022/12/04 04:00:29;;;;;;;;;30.75;27.75;;;;;5.43;61.56;100713.66;6310199;22;45249;-52
2022/12/04 04:03:02;;;;;;;;;31.50;29.75;;;;;5.43;61.31;100705.84;6309685;22;45247;-47
2022/12/04 04:05:31;;;;;;;;;40.75;32.25;;;;;5.43;61.58;100705.84;6308311;22;45269;-49
2022/12/04 04:10:54;;;;;;;;;36.00;29.25;;;;;5.41;61.52;100686.75;6310139;22;45668;-51
2022/12/04 04:24:48;;;;;;;;;37.75;35.75;;;;;5.42;61.38;100693.72;6309115;22;45372;-49
2022/12/04 04:27:13;;;;;;;;;35.25;31.75;;;;;5.43;61.56;100689.34;6309534;22;45249;-53
2022/12/04 04:29:42;;;;;;;;;25.25;24.25;;;;;5.43;61.26;100684.13;6308206;22;45183;-47
2022/12/04 04:32:12;;;;;;;;;38.50;35.50;;;;;5.43;61.33;100691.97;6308492;22;45491;-49
2022/12/04 04:34:37;;;;;;;;;31.25;28.25;;;;;5.42;61.59;100685.00;6308864;22;45171;-49
2022/12/04 04:37:05;;;;;;;;;36.75;29.50;;;;;5.41;61.39;100681.53;6310147;22;45381;-47
2022/12/04 04:39:35;;;;;;;;;41.25;32.75;;;;;5.43;61.47;100684.13;6309843;22;45515;-52
2022/12/04 04:42:13;;;;;;;;;38.75;31.50;;;;;5.43;61.54;100684.13;6309258;22;45206;-51
2022/12/04 04:44:58;;;;;;;;;32.50;27.50;;;;;5.41;61.40;100681.53;6307909;22;45311;-49
2022/12/04 04:47:35;;;;;;;;;31.50;26.75;;;;;5.42;61.35;100685.88;6310001;22;45328;-48
2022/12/04 04:50:03;;;;;;;;;36.50;29.00;;;;;5.44;61.47;100701.53;6310081;22;45185;-50
2022/12/04 04:52:30;;;;;;;;;31.00;24.75;;;;;5.44;61.33;100688.50;6309325;22;46923;-49
2022/12/04 04:54:59;;;;;;;;;38.00;33.00;;;;;5.44;61.59;100691.97;6309236;22;45239;-47
2022/12/04 04:57:34;;;;;;;;;36.75;32.50;;;;;5.45;61.81;100692.84;6308753;22;45195;-49
2022/12/04 05:00:00;;;;;;;;;38.00;32.50;;;;;5.43;61.51;100694.56;6309523;22;45322;-46
2022/12/04 05:02:26;;;;;;;;;35.75;29.75;;;;;5.43;61.27;100694.56;6309474;22;46209;-48
2022/12/04 05:04:51;;;;;;;;;36.75;25.75;;;;;5.44;61.36;100699.78;6309139;22;45326;-48
2022/12/04 05:07:16;;;;;;;;;35.50;32.75;;;;;5.44;61.43;100699.78;6309966;22;45424;-50
2022/12/04 05:09:42;;;;;;;;;37.25;30.25;;;;;5.43;61.41;100698.03;6309600;22;45511;-48
2022/12/04 05:12:08;;;;;;;;;34.00;28.25;;;;;5.46;61.37;100699.78;6309453;22;45929;-47
2022/12/04 05:14:33;;;;;;;;;32.00;27.75;;;;;5.43;61.36;100687.59;6308232;22;45272;-46
2022/12/04 05:16:58;;;;;;;;;36.00;31.00;;;;;5.47;61.30;100688.50;6307864;22;45587;-47
2022/12/04 05:22:08;;;;;;;;;37.75;32.25;;;;;5.46;61.52;100710.22;6309466;22;45276;-49
2022/12/04 05:24:33;;;;;;;;;33.25;27.75;;;;;5.47;61.25;100704.13;6308479;22;45385;-46
2022/12/04 05:26:59;;;;;;;;;40.00;32.00;;;;;5.45;61.38;100692.84;6309699;22;45174;-48
2022/12/04 05:29:24;;;;;;;;;36.25;30.50;;;;;5.47;61.60;100693.72;6309367;22;45684;-47
2022/12/04 05:31:49;;;;;;;;;31.75;29.25;;;;;5.48;61.67;100711.97;6306668;22;51012;-48
2022/12/04 05:34:15;;;;;;;;;41.00;35.75;;;;;5.48;61.30;100724.13;6308924;22;45127;-49
2022/12/04 05:36:40;;;;;;;;;35.75;31.00;;;;;5.46;61.38;100723.25;6309147;22;45147;-48
2022/12/04 05:39:05;;;;;;;;;49.50;34.75;;;;;5.47;61.53;100733.69;6309268;22;45126;-55
2022/12/04 05:41:31;;;;;;;;;41.00;35.75;;;;;5.47;61.58;100731.09;6308427;22;46047;-51
2022/12/04 05:43:56;;;;;;;;;40.50;33.00;;;;;5.48;61.56;100732.81;6308642;22;45163;-50
2022/12/04 05:46:21;;;;;;;;;37.00;33.25;;;;;5.48;61.58;100735.41;6309521;22;45205;-48
2022/12/04 05:48:46;;;;;;;;;38.25;32.00;;;;;5.50;61.53;100748.50;6309341;22;45512;-51
2022/12/04 05:51:12;;;;;;;;;39.25;29.75;;;;;5.49;61.56;100755.41;6309270;22;45187;-48
2022/12/04 05:53:37;;;;;;;;;35.50;32.00;;;;;5.48;61.50;100751.06;6308967;22;45160;-50
2022/12/04 05:56:05;;;;;;;;;35.50;30.25;;;;;5.50;61.54;100754.56;6309319;22;44683;-48
2022/12/04 05:58:33;;;;;;;;;42.00;34.50;;;;;5.51;61.30;100755.44;6308915;22;45177;-50
2022/12/04 06:00:58;;;;;;;;;45.25;36.50;;;;;5.52;61.47;100765.00;6309003;22;45184;-48
2022/12/04 06:03:23;;;;;;;;;42.00;36.00;;;;;5.52;61.41;100752.84;6308739;22;45334;-52
2022/12/04 06:05:49;;;;;;;;;45.00;35.00;;;;;5.52;61.40;100741.53;6307061;22;45267;-52
2022/12/04 06:08:14;;;;;;;;;39.25;32.25;;;;;5.51;61.36;100732.00;6309210;22;45152;-47
2022/12/04 06:10:40;;;;;;;;;39.50;32.25;;;;;5.52;61.50;100747.63;6310506;22;45232;-47
2022/12/04 06:13:06;;;;;;;;;48.25;36.75;;;;;5.52;61.48;100749.34;6310414;22;45199;-47
2022/12/04 06:15:36;;;;;;;;;37.50;35.00;;;;;5.53;61.59;100749.38;6310322;22;45165;-48
2022/12/04 06:18:01;;;;;;;;;45.00;35.25;;;;;5.51;61.71;100729.38;6309823;22;45317;-46
2022/12/04 06:20:26;;;;;;;;;39.25;35.75;;;;;5.54;61.51;100734.59;6310401;22;46101;-46
2022/12/04 06:22:52;;;;;;;;;37.00;35.25;;;;;5.54;61.55;100734.59;6309532;22;45193;-49
2022/12/04 06:25:17;;;;;;;;;41.00;35.25;;;;;5.54;61.36;100735.47;6309947;22;45242;-46
2022/12/04 06:27:43;;;;;;;;;44.00;38.00;;;;;5.53;61.73;100744.16;6310319;22;45556;-48
2022/12/04 06:30:09;;;;;;;;;41.50;36.25;;;;;5.53;61.64;100743.28;6309573;22;45269;-48
2022/12/04 06:32:34;;;;;;;;;38.00;31.75;;;;;5.49;61.61;100729.34;6310224;22;45156;-49
2022/12/04 06:35:00;;;;;;;;;40.75;33.00;;;;;5.49;61.47;100742.38;6310833;22;45260;-47
2022/12/04 06:37:26;;;;;;;;;41.00;33.75;;;;;5.56;61.51;100758.06;6308995;22;45437;-47
2022/12/04 06:39:51;;;;;;;;;45.00;36.00;;;;;5.54;61.56;100756.31;6308442;22;46957;-47
2022/12/04 06:42:16;;;;;;;;;48.75;41.00;;;;;5.53;61.65;100762.41;6310478;22;45205;-51
2022/12/04 06:44:42;;;;;;;;;45.75;36.00;;;;;5.54;61.75;100758.06;6310443;22;45332;-50
2022/12/04 06:47:07;;;;;;;;;41.25;36.25;;;;;5.55;61.74;100762.44;6310605;22;45084;-49
2022/12/04 06:49:33;;;;;;;;;46.25;36.75;;;;;5.52;61.43;100752.84;6310125;22;45973;-49
2022/12/04 06:51:58;;;;;;;;;48.50;38.75;;;;;5.56;61.64;100758.06;6310578;22;45383;-46
2022/12/04 06:54:24;;;;;;;;;50.75;38.25;;;;;5.55;61.59;100752.00;6310034;22;45179;-50
2022/12/04 06:56:50;;;;;;;;;41.25;32.50;;;;;5.57;61.65;100758.06;6310157;22;45255;-47
2022/12/04 06:59:15;;;;;;;;;43.50;36.25;;;;;5.57;61.72;100765.03;6310015;22;45190;-46
2022/12/04 07:01:41;;;;;;;;;32.50;29.75;;;;;5.56;61.62;100760.69;6310484;22;45183;-46
2022/12/04 07:04:06;;;;;;;;;37.75;31.75;;;;;5.58;61.70;100766.78;6310317;22;45277;-49
2022/12/04 07:06:36;;;;;;;;;41.25;38.50;;;;;5.59;61.71;100772.00;6310435;22;45295;-47
2022/12/04 07:09:11;;;;;;;;;45.25;38.25;;;;;5.58;61.51;100772.84;6308346;22;47012;-48
2022/12/04 07:11:37;;;;;;;;;42.75;34.50;;;;;5.59;61.73;100756.34;6309867;22;45247;-50
2022/12/04 07:14:03;;;;;;;;;34.75;31.75;;;;;5.59;61.78;100752.91;6309080;22;45547;-49
2022/12/04 07:16:29;;;;;;;;;50.25;38.00;;;;;5.59;61.57;100764.19;6309458;22;45324;-49
2022/12/04 07:18:56;;;;;;;;;44.00;36.75;;;;;5.61;61.74;100757.25;6306671;22;45360;-48
2022/12/04 07:21:27;;;;;;;;;45.50;33.75;;;;;5.62;61.43;100763.31;6309099;22;45391;-49
2022/12/04 07:23:55;;;;;;;;;46.25;38.75;;;;;5.61;61.65;100766.78;6307918;22;45330;-51
2022/12/04 07:26:22;;;;;;;;;47.25;37.25;;;;;5.63;61.77;100765.94;6308607;22;45328;-48
2022/12/04 07:28:48;;;;;;;;;53.25;39.00;;;;;5.63;61.46;100762.47;6308218;22;47118;-47
2022/12/04 07:31:18;;;;;;;;;46.50;40.50;;;;;5.64;61.74;100772.91;6307401;22;45237;-47
2022/12/04 07:33:45;;;;;;;;;51.00;38.50;;;;;5.64;61.71;100764.22;6309248;22;45267;-48
2022/12/04 07:36:13;;;;;;;;;46.00;38.25;;;;;5.65;61.93;100769.44;6311029;22;45563;-49
2022/12/04 07:38:40;;;;;;;;;43.25;37.50;;;;;5.65;61.72;100763.38;6310007;22;46445;-51
2022/12/04 07:41:06;;;;;;;;;56.50;42.25;;;;;5.65;61.71;100771.19;6308342;22;45268;-49
2022/12/04 07:43:32;;;;;;;;;44.25;37.75;;;;;5.65;61.56;100769.44;6309591;22;45262;-47
2022/12/04 07:46:04;;;;;;;;;54.50;35.75;;;;;5.65;61.52;100751.19;6309248;22;45471;-51
2022/12/04 07:48:29;;;;;;;;;41.25;35.75;;;;;5.63;61.66;100744.22;6309358;22;45304;-48
2022/12/04 07:51:08;;;;;;;;;47.75;39.00;;;;;5.62;61.79;100747.69;6308409;22;46279;-46
2022/12/04 07:53:34;;;;;;;;;44.00;37.50;;;;;5.67;61.87;100753.78;6307430;22;45318;-46
2022/12/04 07:56:00;;;;;;;;;54.50;39.50;;;;;5.63;61.53;100744.22;6309219;22;45323;-47
2022/12/04 07:58:25;;;;;;;;;50.00;39.75;;;;;5.68;61.60;100747.72;6310056;22;45241;-48
2022/12/04 08:00:50;;;;;;;;;43.50;36.25;;;;;5.69;61.69;100755.53;6310082;22;45562;-51
2022/12/04 08:03:16;;;;;;;;;54.00;41.25;;;;;5.61;61.79;100748.53;6310018;22;45226;-50
2022/12/04 08:05:41;;;;;;;;;55.00;39.25;;;;;5.65;61.75;100738.16;6307807;22;47080;-47
2022/12/04 08:08:06;;;;;;;;;54.75;39.50;;;;;5.69;61.73;100724.25;6309031;22;50156;-51
2022/12/04 08:10:32;;;;;;;;;52.50;40.00;;;;;5.70;61.72;100732.97;6308033;22;45820;-49
2022/12/04 08:12:57;;;;;;;;;47.00;39.00;;;;;5.74;61.63;100739.09;6310269;22;45428;-46
2022/12/04 08:15:22;;;;;;;;;44.75;37.75;;;;;5.75;61.71;100739.09;6307856;22;45559;-48
2022/12/04 08:17:48;;;;;;;;;52.50;41.75;;;;;5.77;61.64;100742.56;6309755;22;45941;-48
2022/12/04 08:20:13;;;;;;;;;58.50;43.50;;;;;5.79;61.75;100732.16;6309695;22;45098;-49
2022/12/04 08:22:39;;;;;;;;;55.50;42.25;;;;;5.80;61.82;100739.97;6306643;22;45316;-46
2022/12/04 08:25:04;;;;;;;;;38.75;36.00;;;;;5.81;61.86;100744.34;6293308;22;45920;-45
2022/12/04 08:27:29;;;;;;;;;47.75;37.50;;;;;5.84;61.83;100753.91;6307900;22;46194;-48
2022/12/04 08:29:55;;;;;;;;;53.75;41.75;;;;;5.82;61.80;100743.47;6308212;22;45151;-47
2022/12/04 08:32:20;;;;;;;;;55.75;41.00;;;;;5.85;61.62;100753.91;6307314;22;45436;-48
2022/12/04 08:34:45;;;;;;;;;53.00;40.75;;;;;5.86;61.86;100746.94;6307969;22;45151;-45
2022/12/04 08:37:11;;;;;;;;;56.25;38.75;;;;;5.88;61.86;100750.44;6307838;22;45202;-47
2022/12/04 08:39:36;;;;;;;;;50.25;41.50;;;;;5.89;61.88;100752.19;6308371;22;45510;-49
2022/12/04 08:42:01;;;;;;;;;59.00;43.25;;;;;5.90;61.83;100750.44;6307859;22;45176;-50
2022/12/04 08:44:27;;;;;;;;;53.50;38.25;;;;;5.91;61.75;100755.69;6307964;22;45155;-51
2022/12/04 08:46:52;;;;;;;;;57.75;43.00;;;;;5.94;61.89;100767.88;6307466;22;46170;-50
2022/12/04 08:49:17;;;;;;;;;52.25;40.00;;;;;5.95;61.87;100769.59;6308159;22;45090;-50
2022/12/04 08:51:43;;;;;;;;;57.50;40.00;;;;;5.89;61.73;100756.53;6308287;22;45614;-48
2022/12/04 08:54:12;;;;;;;;;43.50;34.50;;;;;6.00;61.95;100767.94;6305683;22;45809;-47
2022/12/04 08:56:37;;;;;;;;;52.75;39.75;;;;;6.01;61.83;100772.28;6301862;22;46847;-51
2022/12/04 08:59:03;;;;;;;;;49.50;39.50;;;;;6.03;61.88;100759.25;6308117;22;45305;-49
2022/12/04 09:01:29;;;;;;;;;52.25;42.50;;;;;6.03;61.84;100762.72;6308094;22;45274;-50
2022/12/04 09:03:55;;;;;;;;;54.00;44.00;;;;;6.05;61.88;100763.63;6307160;22;45548;-50
2022/12/04 09:06:21;;;;;;;;;57.75;43.00;;;;;6.06;61.83;100773.16;6307505;22;46103;-48
2022/12/04 09:08:46;;;;;;;;;57.25;43.75;;;;;6.07;62.01;100774.06;6307670;22;45263;-48
2022/12/04 09:11:15;;;;;;;;;57.75;45.00;;;;;6.09;61.95;100767.09;6308006;22;45421;-47
2022/12/04 09:13:42;;;;;;;;;55.50;44.50;;;;;6.11;61.91;100774.09;6307161;22;45389;-48
2022/12/04 09:16:11;;;;;;;;;53.25;43.00;;;;;6.10;62.04;100771.44;6307499;22;46110;-48
2022/12/04 09:18:37;;;;;;;;;53.00;41.25;;;;;6.14;61.93;100768.88;6307675;22;45212;-47
2022/12/04 09:21:06;;;;;;;;;52.00;39.75;;;;;6.16;61.86;100769.75;6308067;22;45237;-47
2022/12/04 09:23:33;;;;;;;;;57.75;42.50;;;;;6.19;62.07;100771.50;6305094;22;45430;-48
2022/12/04 09:25:58;;;;;;;;;45.75;38.50;;;;;6.21;61.83;100763.69;6301854;22;45337;-47
2022/12/04 09:28:23;;;;;;;;;57.00;41.75;;;;;6.24;61.94;100758.47;6307697;22;45241;-50
2022/12/04 09:31:01;;;;;;;;;55.00;43.50;;;;;6.25;61.99;100755.00;6305968;22;45272;-48
2022/12/04 09:33:27;;;;;;;;;65.00;46.50;;;;;6.27;61.95;100758.50;6306693;22;45286;-46
2022/12/04 09:35:53;;;;;;;;;58.50;45.25;;;;;6.29;61.89;100754.13;6306301;22;46818;-48
2022/12/04 09:38:18;;;;;;;;;57.75;40.25;;;;;6.29;61.88;100765.47;6308796;22;45964;-47
2022/12/04 09:41:25;;;;;;;;;51.25;38.50;;;;;6.31;61.89;100768.06;6308922;22;45440;-49
2022/12/04 09:43:58;;;;;;;;;58.75;46.00;;;;;6.31;61.85;100771.56;6310200;22;45677;-47
2022/12/04 09:46:49;;;;;;;;;53.50;42.25;;;;;6.35;61.96;100772.41;6310515;22;45653;-49
2022/12/04 09:49:22;;;;;;;;;52.50;42.00;;;;;6.35;62.17;100777.63;6310182;22;45239;-49
2022/12/04 09:51:49;;;;;;;;;60.50;41.75;;;;;6.36;62.00;100776.78;6310405;22;45290;-48
2022/12/04 09:54:22;;;;;;;;;58.75;42.25;;;;;6.37;62.03;100770.69;6310044;22;45172;-48
2022/12/04 09:56:59;;;;;;;;;53.75;40.50;;;;;6.37;62.11;100764.63;6304206;22;45272;-48
2022/12/04 09:59:30;;;;;;;;;57.00;44.75;;;;;6.40;62.25;100765.50;6310144;22;45165;-47
2022/12/04 10:02:08;;;;;;;;;61.75;47.00;;;;;6.34;62.04;100750.69;6310820;22;45254;-51
2022/12/04 10:04:33;;;;;;;;;56.25;45.00;;;;;6.44;61.90;100766.34;6310309;22;45242;-49
2022/12/04 10:07:17;;;;;;;;;56.25;45.25;;;;;6.46;62.21;100762.03;6308010;22;46957;-49
2022/12/04 10:09:54;;;;;;;;;53.00;43.50;;;;;6.44;62.04;100755.91;6308197;22;45255;-50
2022/12/04 10:12:32;;;;;;;;;55.25;43.00;;;;;6.49;62.20;100778.56;6310078;22;45203;-48
2022/12/04 10:15:21;;;;;;;;;57.50;41.00;;;;;6.50;62.15;100780.31;6310270;22;45131;-50
2022/12/04 10:18:14;;;;;;;;;56.25;41.50;;;;;6.44;62.31;100756.81;6250703;22;45334;-47
2022/12/04 10:21:28;;;;;;;;;52.50;41.75;;;;;6.54;61.99;100772.50;6307231;22;45200;-47
2022/12/04 10:24:27;;;;;;;;;58.75;44.75;;;;;6.52;62.19;100761.19;6183742;23;45439;-46
2022/12/04 10:26:56;;;;;;;;;51.25;39.25;;;;;6.56;62.04;100755.09;6154028;23;45927;-47
2022/12/04 10:29:28;;;;;;;;;55.00;43.75;;;;;6.58;62.10;100756.84;6273921;22;45180;-50
2022/12/04 10:31:58;;;;;;;;;56.25;44.25;;;;;6.60;62.26;100759.44;6310154;22;45218;-51
2022/12/04 10:34:28;;;;;;;;;58.00;44.75;;;;;6.62;62.20;100755.97;6309462;22;45285;-48
2022/12/04 10:37:11;;;;;;;;;60.50;45.00;;;;;6.65;62.28;100747.28;6309686;22;45417;-48
2022/12/04 10:39:44;;;;;;;;;58.50;44.75;;;;;6.66;62.01;100749.03;6309958;22;46310;-46
2022/12/04 10:42:19;;;;;;;;;66.25;47.50;;;;;6.69;62.21;100758.59;6310037;22;45615;-47
2022/12/04 10:44:44;;;;;;;;;61.75;48.75;;;;;6.69;62.28;100751.63;6307778;22;45365;-47
2022/12/04 10:47:12;;;;;;;;;64.75;49.75;;;;;6.72;62.11;100761.25;6309826;22;45599;-47
2022/12/04 10:49:38;;;;;;;;;54.50;42.50;;;;;6.73;62.08;100749.91;6309928;22;45431;-48
2022/12/04 10:52:04;;;;;;;;;61.25;47.00;;;;;6.73;62.36;100753.41;6309379;22;45263;-50
2022/12/04 10:54:38;;;;;;;;;55.50;43.25;;;;;6.74;62.13;100749.94;6309640;22;45170;-47
2022/12/04 10:57:07;;;;;;;;;56.75;40.75;;;;;6.77;62.23;100742.06;6303606;22;45470;-48
2022/12/04 10:59:32;;;;;;;;;57.25;42.75;;;;;6.79;62.27;100748.19;6307790;22;47213;-48
2022/12/04 11:02:03;;;;;;;;;54.50;41.00;;;;;6.76;62.34;100742.94;6309785;22;45216;-49
2022/12/04 11:04:30;;;;;;;;;59.50;45.25;;;;;6.78;62.39;100749.06;6307988;22;45283;-51
2022/12/04 11:07:14;;;;;;;;;52.00;39.00;;;;;6.79;62.21;100756.03;6309981;22;45270;-49
2022/12/04 11:09:40;;;;;;;;;56.00;43.50;;;;;6.79;62.18;100753.41;6309754;22;46156;-48
2022/12/04 11:12:15;;;;;;;;;56.50;38.50;;;;;6.80;62.14;100743.81;6309396;22;45264;-47
2022/12/04 11:14:40;;;;;;;;;56.75;42.25;;;;;6.81;62.31;100740.34;6309082;22;45333;-47
2022/12/04 11:17:06;;;;;;;;;61.00;46.50;;;;;6.81;62.27;100743.81;6309632;22;45238;-51
2022/12/04 11:19:35;;;;;;;;;62.25;49.50;;;;;6.81;62.20;100735.97;6309390;22;45985;-49
2022/12/04 11:22:18;;;;;;;;;53.00;40.50;;;;;6.83;62.29;100738.63;6309238;22;45310;-48
2022/12/04 11:24:55;;;;;;;;;54.75;43.50;;;;;6.82;61.99;100729.03;6309007;22;45241;-52
2022/12/04 11:27:33;;;;;;;;;58.00;43.50;;;;;6.85;62.28;100729.03;6307617;22;45441;-47
2022/12/04 11:30:08;;;;;;;;;56.00;40.00;;;;;6.86;62.17;100738.59;6309512;22;46233;-47
2022/12/04 11:32:36;;;;;;;;;47.25;38.50;;;;;6.87;62.37;100735.13;6309891;22;45213;-47
2022/12/04 11:35:23;;;;;;;;;54.50;40.75;;;;;6.88;62.17;100741.22;6309369;22;45286;-47
2022/12/04 11:37:58;;;;;;;;;45.50;34.50;;;;;6.90;62.48;100740.34;6309101;22;45355;-52
2022/12/04 11:40:25;;;;;;;;;46.50;36.75;;;;;6.93;62.48;100731.63;6309393;22;46109;-52
2022/12/04 11:43:08;;;;;;;;;52.75;40.25;;;;;6.94;62.24;100733.38;6309182;22;45425;-47
2022/12/04 11:45:34;;;;;;;;;52.75;39.75;;;;;6.94;62.48;100736.00;6309727;22;45275;-47